Time;durP1;ratioP1;P1;durP2;ratioP2;P2;SDS_P1;SDS_P2;PMS_P1;PMS_P2;Temp;Humidity;BMP_temperature;BMP_pressure;BME280_temperature;BME280_humidity;BME280_pressure;Samples;Min_cycle;Max_cycle;Signal;HPM_P1;HPM_P2
2022/04/23 00:01:10;;;;;;;20.95;14.77;;;;;;;5.14;100.00;99092.16;5073191;28;20033;-75
2022/04/23 00:03:35;;;;;;;22.20;17.40;;;;;;;5.10;100.00;99088.00;5072871;28;20152;-75
2022/04/23 00:06:02;;;;;;;18.85;15.02;;;;;;;5.09;100.00;99091.47;5072928;28;20031;-75
2022/04/23 00:08:27;;;;;;;20.88;16.27;;;;;;;5.03;100.00;99086.53;5072976;28;20028;-74
2022/04/23 00:10:53;;;;;;;22.20;16.27;;;;;;;4.94;100.00;99080.78;5056105;28;142746;-75
2022/04/23 00:13:19;;;;;;;19.40;15.32;;;;;;;4.96;100.00;99094.47;5068431;28;20047;-74
2022/04/23 00:15:44;;;;;;;21.13;15.93;;;;;;;4.79;100.00;99078.69;5073801;28;20395;-75
2022/04/23 00:18:10;;;;;;;20.67;16.65;;;;;;;4.88;100.00;99099.03;5074275;28;20024;-75
2022/04/23 00:20:37;;;;;;;17.92;15.57;;;;;;;4.78;100.00;99079.59;5073865;28;20035;-75
2022/04/23 00:23:03;;;;;;;20.98;16.95;;;;;;;4.82;100.00;99096.66;5074021;28;20032;-74
2022/04/23 00:25:29;;;;;;;23.02;16.73;;;;;;;4.79;100.00;99093.34;5073501;28;20541;-74
2022/04/23 00:27:54;;;;;;;21.80;15.85;;;;;;;4.68;100.00;99081.63;5073853;28;20040;-75
2022/04/23 00:30:20;;;;;;;26.13;20.45;;;;;;;4.67;100.00;99081.66;5073683;28;20094;-75
2022/04/23 00:32:46;;;;;;;26.58;22.17;;;;;;;4.67;100.00;99089.41;5073689;28;20029;-75
2022/04/23 00:35:17;;;;;;;21.95;17.63;;;;;;;4.55;100.00;99071.72;5073711;28;20037;-74
2022/04/23 00:37:44;;;;;;;29.63;21.17;;;;;;;4.54;100.00;99076.03;5073498;28;20035;-75
2022/04/23 00:40:16;;;;;;;24.95;19.10;;;;;;;4.60;100.00;99096.50;5073941;28;20093;-74
2022/04/23 00:42:51;;;;;;;27.25;20.70;;;;;;;4.57;100.00;99094.00;5073386;28;20034;-75
2022/04/23 00:45:17;;;;;;;24.85;19.85;;;;;;;4.56;100.00;99088.91;5073598;28;20027;-75
2022/04/23 00:47:42;;;;;;;27.10;20.90;;;;;;;4.55;100.00;99080.34;5073398;28;20025;-75
2022/04/23 00:50:08;;;;;;;26.85;19.75;;;;;;;4.54;100.00;99078.63;5073571;28;20027;-75
2022/04/23 00:52:35;;;;;;;27.55;21.25;;;;;;;4.51;100.00;99086.47;5073396;28;20039;-75
2022/04/23 00:55:05;;;;;;;26.10;19.67;;;;;;;4.44;100.00;99072.91;5073341;28;20357;-74
2022/04/23 00:57:31;;;;;;;26.92;20.75;;;;;;;4.49;100.00;99089.09;5072866;28;20472;-74
2022/04/23 00:59:57;;;;;;;25.75;20.88;;;;;;;4.42;100.00;99081.56;5073083;28;20468;-75
2022/04/23 01:02:23;;;;;;;28.95;22.75;;;;;;;4.35;100.00;99072.38;5055284;28;20020;-74
2022/04/23 01:04:49;;;;;;;28.35;21.00;;;;;;;4.34;100.00;99075.81;5072687;28;20028;-75
2022/04/23 01:07:14;;;;;;;25.58;21.05;;;;;;;4.31;100.00;99081.09;5073115;28;20039;-75
2022/04/23 01:09:44;;;;;;;31.00;22.17;;;;;;;4.27;100.00;99077.75;5072910;28;20074;-75
2022/04/23 01:12:11;;;;;;;31.43;21.80;;;;;;;4.31;100.00;99089.66;5072820;28;20025;-74
2022/04/23 01:15:04;;;;;;;30.45;22.50;;;;;;;4.29;100.00;99090.56;5072639;28;20487;-75
2022/04/23 01:17:30;;;;;;;28.75;21.63;;;;;;;4.22;100.00;99080.47;5072869;28;20483;-74
2022/04/23 01:19:55;;;;;;;27.55;22.13;;;;;;;4.20;100.00;99083.97;5072849;28;20036;-75
2022/04/23 01:22:25;;;;;;;28.67;22.27;;;;;;;4.14;100.00;99081.59;5072179;28;20031;-74
2022/04/23 01:24:51;;;;;;;26.90;21.58;;;;;;;4.06;100.00;99075.81;5054340;28;20365;-75
2022/04/23 01:27:18;;;;;;;31.10;23.30;;;;;;;4.00;100.00;99072.53;5072833;28;20039;-75
2022/04/23 01:29:44;;;;;;;31.75;23.58;;;;;;;3.95;100.00;99073.53;5072521;28;20107;-74
2022/04/23 01:32:10;;;;;;;32.28;23.02;;;;;;;3.91;100.00;99070.19;5072683;28;20112;-75
2022/04/23 01:34:36;;;;;;;27.17;21.80;;;;;;;3.90;100.00;99077.97;5072326;28;20064;-74
2022/04/23 01:37:02;;;;;;;27.25;21.48;;;;;;;3.80;100.00;99074.84;5072785;28;20414;-75
2022/04/23 01:39:28;;;;;;;30.33;23.95;;;;;;;3.81;100.00;99071.34;5072611;28;20024;-75
2022/04/23 01:41:53;;;;;;;31.38;23.20;;;;;;;3.73;100.00;99071.56;5072300;28;20031;-75
2022/04/23 01:44:19;;;;;;;30.25;23.73;;;;;;;3.78;100.00;99073.19;5072276;28;20024;-74
2022/04/23 01:46:44;;;;;;;33.33;24.70;;;;;;;3.71;100.00;99063.06;5071982;28;20028;-75
2022/04/23 01:49:10;;;;;;;31.65;23.10;;;;;;;3.72;100.00;99069.06;5072276;28;20025;-74
2022/04/23 01:51:35;;;;;;;31.95;23.50;;;;;;;3.69;100.00;99058.81;5072182;28;20468;-75
2022/04/23 01:54:00;;;;;;;35.13;23.95;;;;;;;3.72;100.00;99058.75;5072349;28;20021;-74
2022/04/23 01:56:26;;;;;;;29.77;23.17;;;;;;;3.65;100.00;99052.06;5072271;28;20115;-75
2022/04/23 01:58:51;;;;;;;29.75;23.33;;;;;;;3.70;100.00;99052.78;5072085;28;20037;-75
2022/04/23 02:01:17;;;;;;;34.45;23.92;;;;;;;3.61;100.00;99048.72;5072265;28;20371;-75
2022/04/23 02:03:43;;;;;;;35.92;24.95;;;;;;;3.67;100.00;99060.63;5054182;28;20036;-74
2022/04/23 02:06:08;;;;;;;33.20;23.33;;;;;;;3.59;100.00;99055.66;5072087;28;20035;-75
2022/04/23 02:08:34;;;;;;;26.80;21.17;;;;;;;3.62;100.00;99062.44;5071827;28;20574;-75
2022/04/23 02:11:00;;;;;;;24.23;19.38;;;;;;;3.58;100.00;99053.13;5072053;28;20067;-75
2022/04/23 02:13:26;;;;;;;27.40;20.70;;;;;;;3.52;100.00;99056.72;5072025;28;20023;-75
2022/04/23 02:15:52;;;;;;;24.63;19.20;;;;;;;3.46;100.00;99052.59;5071859;28;20457;-74
2022/04/23 02:18:17;;;;;;;26.75;20.35;;;;;;;3.47;100.00;99061.16;5053999;28;20028;-75
2022/04/23 02:20:43;;;;;;;26.83;20.23;;;;;;;3.39;100.00;99042.50;5071662;28;20060;-75
2022/04/23 02:23:08;;;;;;;26.73;20.27;;;;;;;3.40;100.00;99047.59;5071731;28;20024;-75
2022/04/23 02:25:34;;;;;;;24.13;19.70;;;;;;;3.44;100.00;99061.22;5071709;28;20031;-75
2022/04/23 02:28:00;;;;;;;27.50;20.92;;;;;;;3.37;100.00;99042.56;5071984;28;20020;-75
2022/04/23 02:30:25;;;;;;;31.23;22.10;;;;;;;3.40;100.00;99051.91;5071822;28;20396;-74
2022/04/23 02:32:51;;;;;;;28.92;21.67;;;;;;;3.37;100.00;99051.97;5071623;28;20032;-75
2022/04/23 02:35:19;;;;;;;30.20;21.63;;;;;;;3.39;100.00;99050.22;5052751;28;20028;-75
2022/04/23 02:37:45;;;;;;;27.45;19.48;;;;;;;3.34;100.00;99036.63;5071435;28;20021;-74
2022/04/23 02:40:12;;;;;;;22.67;18.90;;;;;;;3.41;100.00;99040.72;5071887;28;20020;-74
2022/04/23 02:42:37;;;;;;;24.85;19.65;;;;;;;3.50;100.00;99059.34;5071592;28;20020;-75
2022/04/23 02:45:10;;;;;;;27.65;20.30;;;;;;;3.44;100.00;99041.47;5071707;28;20051;-75
2022/04/23 02:47:42;;;;;;;25.67;20.02;;;;;;;3.54;100.00;99061.81;5071418;28;20075;-75
2022/04/23 02:50:09;;;;;;;24.42;19.90;;;;;;;3.54;100.00;99057.53;5071548;28;20024;-75
2022/04/23 02:52:35;;;;;;;27.25;19.95;;;;;;;3.45;100.00;99047.47;5071778;28;20025;-74
2022/04/23 02:55:00;;;;;;;29.38;22.15;;;;;;;3.46;100.00;99052.59;5071472;28;20033;-75
2022/04/23 02:57:26;;;;;;;27.48;20.58;;;;;;;3.50;100.00;99055.94;5071539;28;20031;-74
2022/04/23 02:59:51;;;;;;;23.55;19.35;;;;;;;3.56;100.00;99063.47;5071346;28;20024;-75
2022/04/23 03:02:17;;;;;;;26.27;21.10;;;;;;;3.48;100.00;99053.38;5071440;28;20070;-75
2022/04/23 03:04:43;;;;;;;27.33;21.92;;;;;;;3.46;100.00;99044.03;5071024;28;20036;-75
2022/04/23 03:07:10;;;;;;;33.72;25.52;;;;;;;3.58;100.00;99066.00;5071607;28;20024;-75
2022/04/23 03:09:36;;;;;;;34.72;27.52;;;;;;;3.55;100.00;99068.69;5071385;28;20031;-75
2022/04/23 03:12:01;;;;;;;34.65;27.05;;;;;;;3.53;100.00;99060.97;5071321;28;20021;-75
2022/04/23 03:14:26;;;;;;;80.05;42.08;;;;;;;3.53;100.00;99065.28;5071373;28;20108;-75
2022/04/23 03:16:52;;;;;;;41.97;29.02;;;;;;;3.43;100.00;99057.81;5071246;28;20032;-75
2022/04/23 03:19:17;;;;;;;37.22;29.33;;;;;;;3.49;100.00;99073.09;5071341;28;20133;-75
2022/04/23 03:21:43;;;;;;;39.75;30.05;;;;;;;3.42;100.00;99066.44;5071262;28;20025;-74
2022/04/23 03:24:08;;;;;;;39.88;30.17;;;;;;;3.43;100.00;99072.41;5071374;28;20108;-75
2022/04/23 03:26:33;;;;;;;43.42;31.63;;;;;;;3.37;100.00;99058.00;5071091;28;20016;-75
2022/04/23 03:28:59;;;;;;;45.70;32.38;;;;;;;3.42;100.00;99068.16;5070910;28;20060;-75
2022/04/23 03:31:24;;;;;;;45.67;32.90;;;;;;;3.32;100.00;99069.28;5071131;28;20028;-75
2022/04/23 03:33:50;;;;;;;42.30;31.80;;;;;;;3.31;100.00;99057.31;5070781;28;20028;-75
2022/04/23 03:36:17;;;;;;;40.97;30.27;;;;;;;3.34;100.00;99070.09;5071319;28;20025;-75
2022/04/23 03:38:43;;;;;;;41.75;31.42;;;;;;;3.27;100.00;99058.25;5071006;28;20029;-75
2022/04/23 03:41:09;;;;;;;41.03;30.50;;;;;;;3.28;100.00;99067.66;5071168;28;20021;-74
2022/04/23 03:43:34;;;;;;;45.65;33.85;;;;;;;3.21;100.00;99067.00;5071081;28;20089;-75
2022/04/23 03:45:59;;;;;;;45.22;32.28;;;;;;;3.15;100.00;99064.56;5072062;28;20021;-75
2022/04/23 03:48:25;;;;;;;44.35;33.15;;;;;;;3.14;100.00;99076.59;5074493;28;20441;-74
2022/04/23 03:50:50;;;;;;;43.33;33.22;;;;;;;3.13;100.00;99079.22;5074263;28;20082;-75
2022/04/23 03:53:15;;;;;;;46.15;34.95;;;;;;;3.18;100.00;99085.09;5074502;28;20111;-75
2022/04/23 03:55:41;;;;;;;45.10;33.88;;;;;;;3.17;100.00;99081.66;5074299;28;20089;-74
2022/04/23 03:58:07;;;;;;;48.58;34.05;;;;;;;3.19;100.00;99091.91;5074454;28;20112;-75
2022/04/23 04:00:33;;;;;;;49.17;35.67;;;;;;;3.17;100.00;99079.09;5074399;28;20024;-74
2022/04/23 04:02:58;;;;;;;48.72;36.92;;;;;;;3.21;100.00;99085.00;5074031;28;20029;-74
2022/04/23 04:05:24;;;;;;;51.17;37.42;;;;;;;3.16;100.00;99073.97;5074398;28;20025;-75
2022/04/23 04:07:50;;;;;;;46.28;35.17;;;;;;;3.19;100.00;99073.91;5074049;28;20547;-74
2022/04/23 04:10:21;;;;;;;49.08;36.20;;;;;;;3.28;100.00;99075.38;5074355;28;20079;-75
2022/04/23 04:12:47;;;;;;;51.40;36.90;;;;;;;3.50;100.00;99090.25;5074003;28;20060;-75
2022/04/23 04:15:16;;;;;;;46.42;34.20;;;;;;;3.66;100.00;99088.06;5074094;28;20127;-74
2022/04/23 04:17:43;;;;;;;58.00;40.00;;;;;;;3.68;100.00;99075.16;5073820;28;20495;-75
2022/04/23 04:20:11;;;;;;;59.58;43.25;;;;;;;3.77;100.00;99081.78;5074314;28;20107;-75
2022/04/23 04:22:38;;;;;;;51.13;37.65;;;;;;;3.76;100.00;99070.66;5056205;28;20116;-74
2022/04/23 04:25:04;;;;;;;48.72;36.28;;;;;;;3.90;100.00;99089.13;5073731;28;20376;-75
2022/04/23 04:27:29;;;;;;;48.42;38.53;;;;;;;3.94;100.00;99084.72;5073963;28;20027;-75
2022/04/23 04:29:55;;;;;;;50.58;37.78;;;;;;;4.05;100.00;99087.84;5073731;28;20034;-75
2022/04/23 04:32:20;;;;;;;47.33;37.42;;;;;;;4.10;100.00;99080.00;5073937;28;20027;-75
2022/04/23 04:34:46;;;;;;;49.90;37.22;;;;;;;4.21;100.00;99083.06;5073647;28;20036;-74
2022/04/23 04:37:12;;;;;;;45.83;35.67;;;;;;;4.37;100.00;99089.47;5073929;28;20120;-75
2022/04/23 04:39:40;;;;;;;45.03;34.63;;;;;;;4.50;100.00;99092.50;5073814;28;20556;-75
2022/04/23 04:42:06;;;;;;;49.25;36.63;;;;;;;4.67;100.00;99095.41;5073775;28;20122;-75
2022/04/23 04:44:32;;;;;;;50.33;36.20;;;;;;;4.84;100.00;99087.13;5073618;28;20033;-75
2022/04/23 04:46:58;;;;;;;45.58;36.60;;;;;;;5.19;100.00;99090.31;5073537;28;20025;-75
2022/04/23 04:49:23;;;;;;;47.70;34.42;;;;;;;5.94;100.00;99085.94;5073645;28;20452;-75
2022/04/23 04:51:50;;;;;;;47.90;36.22;;;;;;;6.67;100.00;99084.88;5073275;28;20020;-75
2022/04/23 04:54:17;;;;;;;45.78;34.45;;;;;;;6.98;100.00;99087.06;5073269;28;20533;-75
2022/04/23 04:56:44;;;;;;;45.35;33.00;;;;;;;7.41;100.00;99087.84;5072775;28;20028;-75
2022/04/23 04:59:09;;;;;;;40.92;30.65;;;;;;;7.83;100.00;99092.09;5072748;28;20047;-75
2022/04/23 05:01:34;;;;;;;40.72;30.90;;;;;;;8.21;100.00;99079.13;5073125;28;20020;-75
2022/04/23 05:04:00;;;;;;;40.10;30.15;;;;;;;8.94;100.00;99083.47;5073079;28;20104;-75
2022/04/23 05:06:25;;;;;;;39.92;28.73;;;;;;;10.29;94.69;99094.75;5073095;28;20027;-75
2022/04/23 05:08:51;;;;;;;36.28;28.30;;;;;;;11.30;88.17;99078.63;5055061;28;20483;-74
2022/04/23 05:11:16;;;;;;;34.10;26.92;;;;;;;11.84;84.63;99093.69;5073374;28;20072;-75
2022/04/23 05:13:41;;;;;;;36.40;28.67;;;;;;;11.55;83.64;99085.84;5072960;28;20028;-75
2022/04/23 05:16:08;;;;;;;34.47;27.90;;;;;;;11.43;85.21;99095.22;5072984;28;20071;-76
2022/04/23 05:18:34;;;;;;;33.03;27.63;;;;;;;11.49;83.89;99099.22;5073132;28;20055;-75
2022/04/23 05:20:59;;;;;;;34.28;26.60;;;;;;;11.65;83.54;99088.72;5072732;28;20690;-80
2022/04/23 05:23:25;;;;;;;28.73;24.67;;;;;;;11.99;81.77;99090.16;5072664;28;20025;-81
2022/04/23 05:25:50;;;;;;;33.00;25.60;;;;;;;13.02;78.44;99086.25;5072344;28;20055;-81
2022/04/23 05:28:16;;;;;;;42.65;36.50;;;;;;;14.19;73.03;99096.59;5072479;28;20028;-81
2022/04/23 05:30:42;;;;;;;63.67;46.17;;;;;;;14.30;71.37;99095.84;5072532;28;20031;-81
2022/04/23 05:33:08;;;;;;;49.78;38.70;;;;;;;13.94;72.62;99094.84;5072438;28;20357;-81
2022/04/23 05:35:34;;;;;;;34.42;27.83;;;;;;;13.84;73.02;99103.44;5072604;28;20107;-81
2022/04/23 05:37:59;;;;;;;42.83;32.45;;;;;;;13.87;71.54;99098.00;5072370;28;20028;-81
2022/04/23 05:40:25;;;;;;;59.40;42.92;;;;;;;13.70;72.35;99100.00;5072489;28;20025;-81
2022/04/23 05:42:50;;;;;;;76.68;52.92;;;;;;;14.30;72.66;99093.22;5072325;28;20028;-81
2022/04/23 05:45:16;;;;;;;33.85;24.90;;;;;;;15.88;66.53;99076.31;5071954;28;20024;-81
2022/04/23 05:47:41;;;;;;;37.17;27.45;;;;;;;16.83;59.36;99089.84;5054489;28;20024;-81
2022/04/23 05:50:10;;;;;;;35.47;28.80;;;;;;;16.16;58.66;99083.72;5072058;28;20154;-81
2022/04/23 05:52:37;;;;;;;29.52;24.08;;;;;;;15.69;60.26;99088.25;5072199;28;20028;-81
2022/04/23 05:55:06;;;;;;;25.58;20.85;;;;;;;15.63;61.35;99090.47;5072289;28;20031;-75
2022/04/23 05:57:32;;;;;;;22.40;17.70;;;;;;;15.74;59.19;99108.06;5072114;28;20553;-75
2022/04/23 05:59:57;;;;;;;26.05;20.92;;;;;;;16.10;59.30;99110.50;5072169;28;20028;-75
2022/04/23 06:02:23;;;;;;;18.02;15.95;;;;;;;17.46;54.43;99102.09;5072277;28;20464;-75
2022/04/23 06:04:49;;;;;;;23.65;17.35;;;;;;;17.93;49.75;99109.63;5072012;28;20031;-76
2022/04/23 06:07:15;;;;;;;20.75;15.75;;;;;;;16.89;50.85;99089.34;5072072;28;20083;-75
2022/04/23 06:09:41;;;;;;;17.05;14.73;;;;;;;16.29;52.29;99116.94;5071732;28;20024;-75
2022/04/23 06:12:07;;;;;;;43.45;29.02;;;;;;;16.00;53.13;99096.38;5071780;28;20026;-75
2022/04/23 06:14:33;;;;;;;23.42;15.68;;;;;;;16.19;54.09;99103.69;5072241;28;20387;-75
2022/04/23 06:16:58;;;;;;;21.55;16.90;;;;;;;17.17;53.35;99095.81;5071880;28;20024;-74
2022/04/23 06:19:24;;;;;;;22.27;17.50;;;;;;;18.83;49.69;99106.16;5071976;28;20031;-75
2022/04/23 06:21:49;;;;;;;19.42;16.90;;;;;;;18.74;48.45;99101.72;5071796;28;20020;-75
2022/04/23 06:24:14;;;;;;;20.48;16.65;;;;;;;18.52;50.06;99108.88;5071892;28;20082;-75
2022/04/23 06:26:40;;;;;;;19.85;16.73;;;;;;;18.62;49.61;99112.34;5071648;28;20056;-75
2022/04/23 06:29:05;;;;;;;20.45;17.23;;;;;;;19.15;48.93;99108.56;5071696;28;20028;-76
2022/04/23 06:31:30;;;;;;;19.90;15.77;;;;;;;21.10;43.58;99098.91;5072194;28;20036;-75
2022/04/23 06:33:56;;;;;;;17.08;14.90;;;;;;;22.38;39.92;99112.38;5071451;28;20056;-75
2022/04/23 06:36:21;;;;;;;19.40;16.23;;;;;;;22.26;39.71;99115.47;5071879;28;20028;-76
2022/04/23 06:38:46;;;;;;;19.23;16.05;;;;;;;22.88;37.84;99103.56;5071790;28;20028;-75
2022/04/23 06:41:12;;;;;;;15.02;13.43;;;;;;;24.47;34.63;99105.72;5071509;28;20391;-75
2022/04/23 06:43:37;;;;;;;14.98;13.38;;;;;;;24.54;31.64;99094.22;5071854;28;20039;-75
2022/04/23 06:46:03;;;;;;;15.45;12.63;;;;;;;23.79;33.08;99091.13;5071456;28;20099;-76
2022/04/23 06:48:28;;;;;;;14.02;12.32;;;;;;;22.75;33.83;99084.59;5071792;28;20035;-75
2022/04/23 06:50:54;;;;;;;14.00;11.88;;;;;;;23.60;32.96;99081.69;5071762;28;20433;-75
2022/04/23 06:53:19;;;;;;;12.75;11.45;;;;;;;25.12;30.30;99079.53;5071698;28;20040;-76
2022/04/23 06:55:44;;;;;;;11.38;10.00;;;;;;;27.41;27.07;99083.94;5071626;28;20031;-76
2022/04/23 06:58:11;;;;;;;13.30;10.60;;;;;;;28.96;24.08;99086.19;5071462;28;20438;-75
2022/04/23 07:00:41;;;;;;;11.73;10.50;;;;;;;30.70;22.59;99080.34;5071721;28;20028;-75
2022/04/23 07:03:07;;;;;;;8.88;7.97;;;;;;;32.16;19.52;99073.78;5071209;28;20460;-76
2022/04/23 07:05:33;;;;;;;12.65;9.10;;;;;;;32.11;18.77;99065.53;5071708;28;20027;-76
2022/04/23 07:08:01;;;;;;;9.93;8.82;;;;;;;32.35;19.06;99067.31;5071323;28;20052;-76
2022/04/23 07:10:28;;;;;;;9.65;8.65;;;;;;;32.97;18.42;99069.84;5071087;28;20040;-75
2022/04/23 07:12:55;;;;;;;8.77;7.97;;;;;;;33.43;17.55;99058.28;5071555;28;20028;-76
2022/04/23 07:15:22;;;;;;;8.68;7.80;;;;;;;33.90;17.21;99060.16;5071358;28;20039;-76
2022/04/23 07:17:47;;;;;;;7.35;6.63;;;;;;;34.65;16.27;99070.09;5071416;28;20024;-75
2022/04/23 07:20:14;;;;;;;9.10;7.70;;;;;;;34.63;16.42;99067.63;5071304;28;20039;-76
2022/04/23 07:22:39;;;;;;;7.20;6.45;;;;;;;34.74;15.77;99069.47;5074919;28;20077;-76
2022/04/23 07:25:08;;;;;;;9.00;8.10;;;;;;;34.57;15.56;99063.19;5074565;28;20021;-76
2022/04/23 07:27:33;;;;;;;8.13;7.32;;;;;;;34.81;16.05;99055.78;5075229;28;20111;-76
2022/04/23 07:29:59;;;;;;;11.23;8.70;;;;;;;35.44;16.02;99067.38;5075008;28;20119;-76
2022/04/23 07:32:25;;;;;;;7.80;7.05;;;;;;;36.40;14.63;99062.47;5075086;28;20039;-76
2022/04/23 07:37:35;;;;;;;7.28;6.53;;;;;;;36.68;13.82;99056.03;5074813;28;20036;-75
2022/04/23 07:40:05;;;;;;;8.35;7.55;;;;;;;35.10;14.61;99050.34;5074565;28;20029;-76
2022/04/23 07:42:32;;;;;;;8.23;7.43;;;;;;;34.14;16.24;99050.16;5074902;28;20464;-76
2022/04/23 07:44:58;;;;;;;9.68;8.77;;;;;;;34.78;16.57;99055.47;5074840;28;20056;-76
2022/04/23 07:47:24;;;;;;;8.70;7.80;;;;;;;35.64;14.81;99040.63;5074732;28;20033;-76
2022/04/23 07:49:50;;;;;;;8.35;7.55;;;;;;;35.76;15.40;99048.66;5074666;28;20021;-76
2022/04/23 07:52:16;;;;;;;8.60;7.88;;;;;;;36.60;15.21;99052.97;5074293;28;20021;-76
2022/04/23 07:54:43;;;;;;;10.38;9.10;;;;;;;36.54;14.49;99052.09;5075170;28;20070;-76
2022/04/23 07:57:10;;;;;;;6.65;5.95;;;;;;;36.23;14.53;99054.41;5085493;28;20024;-76
2022/04/23 07:59:41;;;;;;;8.27;7.28;;;;;;;37.30;14.06;99043.00;5084484;28;20086;-76
2022/04/23 08:02:07;;;;;;;7.43;6.70;;;;;;;36.55;14.38;99051.00;5074221;28;20086;-76
2022/04/23 08:04:32;;;;;;;7.85;7.05;;;;;;;37.10;14.08;99036.34;5090165;28;20040;-76
2022/04/23 08:06:58;;;;;;;9.00;6.95;;;;;;;36.88;13.44;99043.72;5094617;28;20371;-76
2022/04/23 08:09:23;;;;;;;6.60;6.00;;;;;;;36.47;13.89;99046.03;5094845;28;20379;-76
2022/04/23 08:11:48;;;;;;;8.52;6.80;;;;;;;35.96;14.52;99039.97;5089266;28;20048;-76
2022/04/23 08:14:14;;;;;;;7.57;6.70;;;;;;;32.47;16.70;99045.84;5073871;28;20104;-75
2022/04/23 08:16:39;;;;;;;7.00;6.38;;;;;;;27.62;20.42;99022.38;5074110;28;20461;-76
2022/04/23 08:19:05;;;;;;;11.25;10.15;;;;;;;25.20;23.62;99029.84;5073851;28;20037;-75
2022/04/23 08:21:30;;;;;;;9.15;8.25;;;;;;;23.78;26.89;99039.78;5073965;28;20033;-76
2022/04/23 08:23:55;;;;;;;7.97;7.13;;;;;;;22.49;27.58;99042.25;5073998;28;20430;-76
2022/04/23 08:26:21;;;;;;;8.07;7.30;;;;;;;21.76;28.92;99050.72;5073651;28;20059;-75
2022/04/23 08:31:30;;;;;;;8.98;8.07;;;;;;;19.68;32.38;99031.50;5073789;28;20086;-75
2022/04/23 08:33:59;;;;;;;9.98;9.00;;;;;;;18.38;34.86;99030.97;5074113;28;20025;-75
2022/04/23 08:36:29;;;;;;;8.95;8.07;;;;;;;18.02;36.31;99036.84;5073984;28;20103;-75
2022/04/23 08:38:56;;;;;;;9.90;8.90;;;;;;;17.54;37.06;99043.53;5073913;28;20471;-76
2022/04/23 08:41:28;;;;;;;9.82;8.77;;;;;;;17.53;38.69;99034.00;5073531;28;20029;-75
2022/04/23 08:43:56;;;;;;;9.40;8.50;;;;;;;17.21;38.24;99029.63;5073677;28;20104;-75
2022/04/23 08:46:23;;;;;;;9.07;8.18;;;;;;;16.85;38.80;99032.69;5073258;28;20032;-75
2022/04/23 08:48:53;;;;;;;9.07;8.18;;;;;;;16.65;39.26;99021.16;5073746;28;20097;-75
2022/04/23 08:51:22;;;;;;;10.10;9.10;;;;;;;16.65;39.88;99024.63;5073458;28;20143;-75
2022/04/23 08:53:48;;;;;;;12.50;10.65;;;;;;;16.18;40.83;99010.88;5073594;28;20044;-78
2022/04/23 08:56:13;;;;;;;10.02;9.05;;;;;;;16.04;41.45;99023.44;5073191;28;20090;-78
2022/04/23 08:58:42;;;;;;;10.52;9.52;;;;;;;15.95;41.66;99010.06;5073260;28;20025;-79
2022/04/23 09:01:07;;;;;;;9.90;8.82;;;;;;;16.08;42.30;99015.19;5073240;28;20104;-79
2022/04/23 09:03:33;;;;;;;14.23;10.70;;;;;;;16.30;42.16;99023.97;5073206;28;20029;-78
2022/04/23 09:05:58;;;;;;;10.23;9.23;;;;;;;16.22;41.15;99027.22;5073242;28;20020;-78
2022/04/23 09:08:26;;;;;;;10.32;8.43;;;;;;;15.99;40.70;99007.22;5073048;28;20472;-78
2022/04/23 09:10:54;;;;;;;10.25;9.15;;;;;;;15.67;41.20;99015.81;5073240;28;20048;-78
2022/04/23 09:13:31;;;;;;;9.52;8.60;;;;;;;15.57;41.88;99022.72;5072621;28;20048;-80
2022/04/23 09:24:14;;;;;;;11.82;10.30;;;;;;;15.47;43.73;99002.44;5072773;28;20035;-80
2022/04/23 09:26:41;;;;;;;12.45;10.48;;;;;;;15.46;43.24;99019.13;5072937;28;20032;-80
2022/04/23 09:29:18;;;;;;;12.80;11.43;;;;;;;15.23;44.21;99009.53;5054619;28;20464;-80
2022/04/23 09:31:44;;;;;;;12.85;11.38;;;;;;;15.12;44.87;99020.00;5073148;28;20032;-80
2022/04/23 09:34:17;;;;;;;12.77;11.20;;;;;;;15.00;44.66;99005.19;5072344;28;20103;-79
2022/04/23 09:36:50;;;;;;;11.98;10.68;;;;;;;14.92;45.56;99026.75;5072737;28;20033;-79
2022/04/23 09:39:28;;;;;;;11.20;10.05;;;;;;;15.10;45.53;99017.50;5072424;28;20028;-80
2022/04/23 09:42:10;;;;;;;12.23;10.93;;;;;;;15.07;46.17;99017.72;5072650;28;20035;-80
2022/04/23 09:44:36;;;;;;;10.93;9.75;;;;;;;15.04;45.61;99014.50;5053899;28;20020;-80
2022/04/23 09:47:01;;;;;;;11.57;10.38;;;;;;;15.33;47.45;99007.88;5054668;28;20108;-80
2022/04/23 09:49:27;;;;;;;10.98;9.90;;;;;;;15.42;46.41;98998.47;5072351;28;20028;-80
2022/04/23 09:52:05;;;;;;;11.40;10.20;;;;;;;15.41;44.08;99012.53;5072676;28;20460;-80
2022/04/23 09:54:32;;;;;;;11.40;9.98;;;;;;;15.20;44.44;99010.59;5072362;28;20028;-80
2022/04/23 09:56:59;;;;;;;10.95;9.95;;;;;;;15.06;44.25;99008.19;5072175;28;20111;-80
2022/04/23 09:59:25;;;;;;;11.60;9.80;;;;;;;15.07;44.46;98998.53;5053775;28;20028;-80
2022/04/23 10:01:51;;;;;;;11.95;9.57;;;;;;;15.30;44.63;99010.75;5072150;28;20029;-80
2022/04/23 10:04:25;;;;;;;11.27;9.88;;;;;;;15.17;43.28;99000.34;5071952;28;20376;-80
2022/04/23 10:06:54;;;;;;;10.15;9.15;;;;;;;15.36;43.88;99007.66;5072099;28;20052;-80
2022/04/23 10:09:23;;;;;;;10.70;9.60;;;;;;;15.63;44.54;98995.97;5071831;28;20016;-80
2022/04/23 10:11:51;;;;;;;11.27;10.07;;;;;;;15.63;43.18;99012.56;5071808;28;20052;-80
2022/04/23 10:14:22;;;;;;;11.07;9.98;;;;;;;15.77;43.03;99011.53;5071865;28;20070;-79
2022/04/23 10:16:49;;;;;;;11.50;10.30;;;;;;;15.85;43.11;99010.94;5072102;28;20491;-80
2022/04/23 10:19:15;;;;;;;13.25;11.85;;;;;;;15.67;43.33;98995.66;5071725;28;20107;-80
2022/04/23 10:22:14;;;;;;;11.32;10.15;;;;;;;15.86;44.30;99012.59;5053894;28;20028;-80
2022/04/23 10:24:55;;;;;;;13.35;10.70;;;;;;;16.10;42.72;99005.41;5072199;28;20052;-80
2022/04/23 10:27:25;;;;;;;;;;;;;;;16.29;42.40;99001.31;5072134;28;20047;-80
2022/04/23 10:29:54;;;;;;;11.43;10.32;;;;;;;16.32;41.86;98996.63;5071884;28;19951;-80
2022/04/23 10:32:20;;;;;;;10.88;9.65;;;;;;;16.50;42.54;99004.00;5071622;28;20016;-80
2022/04/23 10:34:46;;;;;;;11.35;10.25;;;;;;;16.46;41.85;98985.81;5071856;28;20040;-80
2022/04/23 10:37:14;;;;;;;10.20;9.20;;;;;;;16.62;41.98;98988.03;5071733;28;20029;-80
2022/04/23 10:39:42;;;;;;;12.93;10.55;;;;;;;16.81;40.54;99004.97;5079459;28;20037;-80
2022/04/23 10:42:11;;;;;;;11.40;10.30;;;;;;;16.66;41.99;98981.56;5086151;28;20020;-81
2022/04/23 10:44:37;;;;;;;10.35;9.30;;;;;;;16.54;41.20;98979.13;5053581;28;20119;-81
2022/04/23 10:47:11;;;;;;;12.15;10.93;;;;;;;16.38;41.38;98990.88;5082238;28;20032;-81
2022/04/23 10:49:36;;;;;;;11.45;10.35;;;;;;;16.24;41.69;98987.69;5092005;28;20020;-81
2022/04/23 10:52:02;;;;;;;11.40;10.30;;;;;;;16.39;41.69;98996.97;5091900;28;20459;-80
2022/04/23 10:54:40;;;;;;;12.15;10.90;;;;;;;16.62;41.66;98987.22;5089995;28;20028;-81
2022/04/23 10:57:15;;;;;;;14.68;11.45;;;;;;;16.54;41.13;98982.59;5074885;28;20036;-81
2022/04/23 10:59:45;;;;;;;12.55;11.25;;;;;;;16.50;41.61;98985.59;5075486;28;20029;-80
2022/04/23 11:02:28;;;;;;;12.50;10.85;;;;;;;16.27;42.21;98987.47;5074188;28;20071;-80
2022/04/23 11:13:48;;;;;;;10.90;9.77;;;;;;;16.61;43.63;98970.59;5074785;28;20384;-80
2022/04/23 11:16:16;;;;;;;11.43;10.05;;;;;;;16.80;43.07;98963.84;5056497;28;20123;-81
2022/04/23 11:18:44;;;;;;;13.10;11.70;;;;;;;16.73;41.82;98979.31;5057062;28;20032;-80
2022/04/23 11:21:21;;;;;;;12.32;11.13;;;;;;;16.36;41.44;98976.22;5074557;28;20028;-81
2022/04/23 11:23:47;;;;;;;11.85;10.68;;;;;;;15.96;42.32;98961.84;5074827;28;20024;-80
2022/04/23 11:26:18;;;;;;;12.18;10.70;;;;;;;15.91;43.47;98969.25;5056558;28;20029;-80
2022/04/23 11:28:45;;;;;;;12.27;11.07;;;;;;;15.84;42.78;98967.22;5074645;28;20027;-80
2022/04/23 11:31:17;;;;;;;11.60;10.40;;;;;;;15.88;42.75;98963.41;5074537;28;20111;-80
2022/04/23 11:33:53;;;;;;;13.20;11.90;;;;;;;16.10;42.61;98963.38;5056771;28;20036;-81
2022/04/23 11:36:24;;;;;;;13.95;10.40;;;;;;;16.38;41.15;98961.13;5074521;28;20057;-81
2022/04/23 11:38:49;;;;;;;14.38;11.32;;;;;;;16.40;41.49;98960.06;5056595;28;20020;-81
2022/04/23 11:41:34;;;;;;;14.68;11.65;;;;;;;16.37;41.86;98956.84;5072639;28;20472;-80